LBSFLGSK

Guest
Details From LBSF - Sofia
To LGSK - Skiathos Alexandros Papadiamantis
Flight Number -
Tags generated
Created
Modified
Stats Distance 213 nm / 394 km
Max Altitude 24,500 ft / 7,468 m
Waypoints 4
Social Downloads 0
Likes 0
Share VATSIM

Download

Looking for another format? Having issues loading an existing format? Contact us
Advertisement - Login to hide

Notes

Basic altitude profile: - Ascent Rate: 2500ft/min - Ascent Speed: 250kts - Cruise Altitude: 35000ft - Cruise Speed: 420kts - Descent Rate: 1500ft/min - Descent Speed: 250kts Options: - Use NATs: yes - Use PACOTS: yes - Use low airways: yes - Use high airways: yes

Route

LBSF ODIKO UR35 DIKNI LGSK

ID Type Via Altitude Latitude Longitude Leg Dist Tot Dist Heading (true) Name
O LBSF APT - 0 ft / 0 m 42.69713˚ 23.41672˚ - 0 nm - Sofia
ODIKO FIX - 22,300 ft / 6,797 m 40.97139˚ 23.24194˚ 103 nm 103 nm 184° / 184° -
DIKNI FIX UR35 (AWY-HI) 24,500 ft / 7,468 m 40.89917˚ 23.20639˚ 4 nm 108 nm 200° / 200° -
O LGSK APT - 0 ft / 0 m 39.17710˚ 23.50368˚ 104 nm 212 nm 172° / 173° Skiathos Alexandros Papadiamantis

Altitude Profile

Advertisement - Login to hide

Weather


0- 5 10 15 20 25 30 35+ Temperature / ° C

Clouds and Precipitation
Forecast for 2017-12-11 18:00 UTC. Updated 2 minutes ago

Ground ~20,000 ft ~40,000 ft Winds

LBSF

Details ICAO LBSF (SOF)
Name Sofia
Region Bulgaria
Timezone Europe/Sofia (UTC+2.0)
Stats Elevation 1,741 ft / 531 m (AMSL)
Location 42.697130° 23.416722°
Runways 1
Magnetic Variation 4.933° E

METAR

LBSF 111700Z 06003KT 030V100 4500 BR NSC M01/M04 Q1018 NOSIG

Decode

TAF

TAF LBSF 111100Z 1112/1212 15008KT 9999 BKN050 PROB30 TEMPO 1112/1116 21010G20KT BECMG 1118/1120 VRB04KT 3000 BR NSC PROB30 TEMPO 1200/1207 0600 FZFG BKN004

Decode

Departure Runways

ID Width Length Bearing (true) Bearing (mag) Surface Threshold Offset Overrun Length
09 148 ft / 45 m 11,801 ft / 3,597 m 93.99° 89.06° Asphalt 984 ft / 300 m 525 ft / 160 m
27 148 ft / 45 m 11,801 ft / 3,597 m 274.02° 269.09° Asphalt 0 ft / 0 m 525 ft / 160 m

LGSK

Details ICAO LGSK (JSI)
Name Skiathos Alexandros Papadiamantis
Region Greece
Timezone Europe/Athens (UTC+2.0)
Stats Elevation 54 ft / 16 m (AMSL)
Location 39.177100° 23.503677°
Runways 1
Magnetic Variation 4.553° E

METAR

LGSK 111650Z 00000KT CAVOK 11/04 Q1020

Decode

TAF

Not found

Destination Runways

ID Width Length Bearing (true) Bearing (mag) Surface Threshold Offset Overrun Length
02 98 ft / 30 m 5,535 ft / 1,687 m 18.96° 14.41° Asphalt 190 ft / 58 m 0 ft / 0 m
20 98 ft / 30 m 5,535 ft / 1,687 m 198.97° 194.42° Asphalt 0 ft / 0 m 242 ft / 74 m

Popular Alternatives